Aviation Digital Data Service (ADDS)

Output produced by METARs form (1035 UTC 17 June 2019)
found at http://www.aviationweather.gov/metar/data/
 
METAR text: UDYZ 171000Z 22003KT 130V270 9999 FEW040CB 33/03 Q1009 R09/190065 NOSIG
Conditions at: UDYZ (ZVARTNOTS , AM) observed 1000 UTC 17 June 2019
Temperature: 33.0°C (91°F)
Dewpoint: 3.0°C (37°F) [RH = 15%]
Pressure (altimeter): 29.79 inches Hg (1009.0 mb)
Winds: from the SW (220 degrees) at 3 MPH (3 knots; 1.5 m/s)
Visibility: 6 or more miles (10+ km)
Ceiling: at least 12,000 feet AGL
Clouds: few clouds at 4000 feet AGL
Weather: no significant weather observed at this time

METAR text: UDYZ 170930Z 29004KT 260V340 9999 FEW040CB 32/03 Q1009 R09/190065 NOSIG
Conditions at: UDYZ (ZVARTNOTS , AM) observed 0930 UTC 17 June 2019
Temperature: 32.0°C (90°F)
Dewpoint: 3.0°C (37°F) [RH = 16%]
Pressure (altimeter): 29.79 inches Hg (1009.0 mb)
Winds: from the WNW (290 degrees) at 5 MPH (4 knots; 2.1 m/s)
Visibility: 6 or more miles (10+ km)
Ceiling: at least 12,000 feet AGL
Clouds: few clouds at 4000 feet AGL
Weather: no significant weather observed at this time

METAR text: UDYZ 170900Z VRB02KT 9999 FEW040CB 33/03 Q1010 R09/190065 NOSIG
Conditions at: UDYZ (ZVARTNOTS , AM) observed 0900 UTC 17 June 2019
Temperature: 33.0°C (91°F)
Dewpoint: 3.0°C (37°F) [RH = 15%]
Pressure (altimeter): 29.82 inches Hg (1010.0 mb)
Winds: variable direction winds at 2 MPH (2 knots; 1.0 m/s)
Visibility: 6 or more miles (10+ km)
Ceiling: at least 12,000 feet AGL
Clouds: few clouds at 4000 feet AGL
Weather: no significant weather observed at this time

METAR text: UDYZ 170830Z 25004KT 210V290 9999 FEW040CB 32/06 Q1010 R09/190065 NOSIG
Conditions at: UDYZ (ZVARTNOTS , AM) observed 0830 UTC 17 June 2019
Temperature: 32.0°C (90°F)
Dewpoint: 6.0°C (43°F) [RH = 20%]
Pressure (altimeter): 29.82 inches Hg (1010.0 mb)
Winds: from the WSW (250 degrees) at 5 MPH (4 knots; 2.1 m/s)
Visibility: 6 or more miles (10+ km)
Ceiling: at least 12,000 feet AGL
Clouds: few clouds at 4000 feet AGL
Weather: no significant weather observed at this time

METAR text: UDYZ 170800Z VRB02KT 9999 FEW040CB 31/08 Q1010 R09/190065 NOSIG
Conditions at: UDYZ (ZVARTNOTS , AM) observed 0800 UTC 17 June 2019
Temperature: 31.0°C (88°F)
Dewpoint: 8.0°C (46°F) [RH = 24%]
Pressure (altimeter): 29.82 inches Hg (1010.0 mb)
Winds: variable direction winds at 2 MPH (2 knots; 1.0 m/s)
Visibility: 6 or more miles (10+ km)
Ceiling: at least 12,000 feet AGL
Clouds: few clouds at 4000 feet AGL
Weather: no significant weather observed at this time

METAR text: UDYZ 170730Z 24003KT 190V320 9999 FEW040CB 29/10 Q1011 R09/190065 NOSIG
Conditions at: UDYZ (ZVARTNOTS , AM) observed 0730 UTC 17 June 2019
Temperature: 29.0°C (84°F)
Dewpoint: 10.0°C (50°F) [RH = 31%]
Pressure (altimeter): 29.85 inches Hg (1011.0 mb)
Winds: from the WSW (240 degrees) at 3 MPH (3 knots; 1.5 m/s)
Visibility: 6 or more miles (10+ km)
Ceiling: at least 12,000 feet AGL
Clouds: few clouds at 4000 feet AGL
Weather: no significant weather observed at this time

METAR text: UDYZ 170700Z 27004KT 230V300 9999 FEW040CB 26/11 Q1011 R09/190065 NOSIG
Conditions at: UDYZ (ZVARTNOTS , AM) observed 0700 UTC 17 June 2019
Temperature: 26.0°C (79°F)
Dewpoint: 11.0°C (52°F) [RH = 39%]
Pressure (altimeter): 29.85 inches Hg (1011.0 mb)
Winds: from the W (270 degrees) at 5 MPH (4 knots; 2.1 m/s)
Visibility: 6 or more miles (10+ km)
Ceiling: at least 12,000 feet AGL
Clouds: few clouds at 4000 feet AGL
Weather: no significant weather observed at this time

METAR text: UDYZ 170630Z 20004KT 160V230 9999 SCT040CB 25/10 Q1011 R09/190065 NOSIG
Conditions at: UDYZ (ZVARTNOTS , AM) observed 0630 UTC 17 June 2019
Temperature: 25.0°C (77°F)
Dewpoint: 10.0°C (50°F) [RH = 39%]
Pressure (altimeter): 29.85 inches Hg (1011.0 mb)
Winds: from the SSW (200 degrees) at 5 MPH (4 knots; 2.1 m/s)
Visibility: 6 or more miles (10+ km)
Ceiling: at least 12,000 feet AGL
Clouds: scattered clouds at 4000 feet AGL
Weather: no significant weather observed at this time

METAR text: UDYZ 170600Z 18006KT 150V220 9999 SCT040CB 25/09 Q1011 R09/190065 NOSIG
Conditions at: UDYZ (ZVARTNOTS , AM) observed 0600 UTC 17 June 2019
Temperature: 25.0°C (77°F)
Dewpoint: 9.0°C (48°F) [RH = 36%]
Pressure (altimeter): 29.85 inches Hg (1011.0 mb)
Winds: from the S (180 degrees) at 7 MPH (6 knots; 3.1 m/s)
Visibility: 6 or more miles (10+ km)
Ceiling: at least 12,000 feet AGL
Clouds: scattered clouds at 4000 feet AGL
Weather: no significant weather observed at this time

METAR text: UDYZ 170530Z 09004KT 360V170 9999 SCT040CB 26/09 Q1011 R09/190065 NOSIG
Conditions at: UDYZ (ZVARTNOTS , AM) observed 0530 UTC 17 June 2019
Temperature: 26.0°C (79°F)
Dewpoint: 9.0°C (48°F) [RH = 34%]
Pressure (altimeter): 29.85 inches Hg (1011.0 mb)
Winds: from the E (90 degrees) at 5 MPH (4 knots; 2.1 m/s)
Visibility: 6 or more miles (10+ km)
Ceiling: at least 12,000 feet AGL
Clouds: scattered clouds at 4000 feet AGL
Weather: no significant weather observed at this time

METAR text: UDYZ 170500Z 13004KT 9999 SCT040CB 23/12 Q1011 R09/190065 NOSIG
Conditions at: UDYZ (ZVARTNOTS , AM) observed 0500 UTC 17 June 2019
Temperature: 23.0°C (73°F)
Dewpoint: 12.0°C (54°F) [RH = 50%]
Pressure (altimeter): 29.85 inches Hg (1011.0 mb)
Winds: from the SE (130 degrees) at 5 MPH (4 knots; 2.1 m/s)
Visibility: 6 or more miles (10+ km)
Ceiling: at least 12,000 feet AGL
Clouds: scattered clouds at 4000 feet AGL
Weather: no significant weather observed at this time

METAR text: UDYZ 170430Z VRB02KT 9999 FEW040CB 24/09 Q1012 R09/010070 NOSIG
Conditions at: UDYZ (ZVARTNOTS , AM) observed 0430 UTC 17 June 2019
Temperature: 24.0°C (75°F)
Dewpoint: 9.0°C (48°F) [RH = 38%]
Pressure (altimeter): 29.88 inches Hg (1012.0 mb)
Winds: variable direction winds at 2 MPH (2 knots; 1.0 m/s)
Visibility: 6 or more miles (10+ km)
Ceiling: at least 12,000 feet AGL
Clouds: few clouds at 4000 feet AGL
Weather: no significant weather observed at this time

METAR text: UDYZ 170400Z VRB02KT 9999 FEW043 23/10 Q1011 R09/010070 NOSIG
Conditions at: UDYZ (ZVARTNOTS , AM) observed 0400 UTC 17 June 2019
Temperature: 23.0°C (73°F)
Dewpoint: 10.0°C (50°F) [RH = 44%]
Pressure (altimeter): 29.85 inches Hg (1011.0 mb)
Winds: variable direction winds at 2 MPH (2 knots; 1.0 m/s)
Visibility: 6 or more miles (10+ km)
Ceiling: at least 12,000 feet AGL
Clouds: few clouds at 4300 feet AGL
Weather: no significant weather observed at this time

METAR text: UDYZ 170330Z 00000KT 9999 FEW043 21/10 Q1011 R09/010070 NOSIG
Conditions at: UDYZ (ZVARTNOTS , AM) observed 0330 UTC 17 June 2019
Temperature: 21.0°C (70°F)
Dewpoint: 10.0°C (50°F) [RH = 49%]
Pressure (altimeter): 29.85 inches Hg (1011.0 mb)
Winds: calm
Visibility: 6 or more miles (10+ km)
Ceiling: at least 12,000 feet AGL
Clouds: few clouds at 4300 feet AGL
Weather: no significant weather observed at this time

METAR text: UDYZ 170300Z VRB01KT 9999 FEW043 21/10 Q1011 R09/010070 NOSIG
Conditions at: UDYZ (ZVARTNOTS , AM) observed 0300 UTC 17 June 2019
Temperature: 21.0°C (70°F)
Dewpoint: 10.0°C (50°F) [RH = 49%]
Pressure (altimeter): 29.85 inches Hg (1011.0 mb)
Winds: variable direction winds at 1 MPH (1 knots; 0.5 m/s)
Visibility: 6 or more miles (10+ km)
Ceiling: at least 12,000 feet AGL
Clouds: few clouds at 4300 feet AGL
Weather: no significant weather observed at this time

METAR text: UDYZ 170230Z 11002KT 9999 FEW043 23/08 Q1010 R09/010070 NOSIG
Conditions at: UDYZ (ZVARTNOTS , AM) observed 0230 UTC 17 June 2019
Temperature: 23.0°C (73°F)
Dewpoint: 8.0°C (46°F) [RH = 38%]
Pressure (altimeter): 29.82 inches Hg (1010.0 mb)
Winds: from the ESE (110 degrees) at 2 MPH (2 knots; 1.0 m/s)
Visibility: 6 or more miles (10+ km)
Ceiling: at least 12,000 feet AGL
Clouds: few clouds at 4300 feet AGL
Weather: no significant weather observed at this time

METAR text: UDYZ 170200Z 09005KT 9999 FEW043 22/09 Q1010 R09/010070 NOSIG
Conditions at: UDYZ (ZVARTNOTS , AM) observed 0200 UTC 17 June 2019
Temperature: 22.0°C (72°F)
Dewpoint: 9.0°C (48°F) [RH = 43%]
Pressure (altimeter): 29.82 inches Hg (1010.0 mb)
Winds: from the E (90 degrees) at 6 MPH (5 knots; 2.6 m/s)
Visibility: 6 or more miles (10+ km)
Ceiling: at least 12,000 feet AGL
Clouds: few clouds at 4300 feet AGL
Weather: no significant weather observed at this time

METAR text: UDYZ 170130Z 04004KT 9999 FEW043 21/09 Q1010 R09/010070 NOSIG
Conditions at: UDYZ (ZVARTNOTS , AM) observed 0130 UTC 17 June 2019
Temperature: 21.0°C (70°F)
Dewpoint: 9.0°C (48°F) [RH = 46%]
Pressure (altimeter): 29.82 inches Hg (1010.0 mb)
Winds: from the NE (40 degrees) at 5 MPH (4 knots; 2.1 m/s)
Visibility: 6 or more miles (10+ km)
Ceiling: at least 12,000 feet AGL
Clouds: few clouds at 4300 feet AGL
Weather: no significant weather observed at this time

METAR text: UDYZ 170100Z 07003KT 9999 FEW043 20/08 Q1010 R09/010070 NOSIG
Conditions at: UDYZ (ZVARTNOTS , AM) observed 0100 UTC 17 June 2019
Temperature: 20.0°C (68°F)
Dewpoint: 8.0°C (46°F) [RH = 46%]
Pressure (altimeter): 29.82 inches Hg (1010.0 mb)
Winds: from the ENE (70 degrees) at 3 MPH (3 knots; 1.5 m/s)
Visibility: 6 or more miles (10+ km)
Ceiling: at least 12,000 feet AGL
Clouds: few clouds at 4300 feet AGL
Weather: no significant weather observed at this time

METAR text: UDYZ 170030Z 26004KT 9999 SCT040CB 20/07 Q1010 R09/010070 NOSIG
Conditions at: UDYZ (ZVARTNOTS , AM) observed 0030 UTC 17 June 2019
Temperature: 20.0°C (68°F)
Dewpoint: 7.0°C (45°F) [RH = 43%]
Pressure (altimeter): 29.82 inches Hg (1010.0 mb)
Winds: from the W (260 degrees) at 5 MPH (4 knots; 2.1 m/s)
Visibility: 6 or more miles (10+ km)
Ceiling: at least 12,000 feet AGL
Clouds: scattered clouds at 4000 feet AGL
Weather: no significant weather observed at this time

METAR text: UDYZ 170000Z 01006KT 9999 FEW043 24/08 Q1010 R09/010070 NOSIG
Conditions at: UDYZ (ZVARTNOTS , AM) observed 0000 UTC 17 June 2019
Temperature: 24.0°C (75°F)
Dewpoint: 8.0°C (46°F) [RH = 36%]
Pressure (altimeter): 29.82 inches Hg (1010.0 mb)
Winds: from the N (10 degrees) at 7 MPH (6 knots; 3.1 m/s)
Visibility: 6 or more miles (10+ km)
Ceiling: at least 12,000 feet AGL
Clouds: few clouds at 4300 feet AGL
Weather: no significant weather observed at this time

METAR text: UDYZ 162330Z 35003KT 9999 NSC 22/08 Q1010 R09/010070 NOSIG
Conditions at: UDYZ (ZVARTNOTS , AM) observed 2330 UTC 16 June 2019
Temperature: 22.0°C (72°F)
Dewpoint: 8.0°C (46°F) [RH = 41%]
Pressure (altimeter): 29.82 inches Hg (1010.0 mb)
Winds: from the N (350 degrees) at 3 MPH (3 knots; 1.5 m/s)
Visibility: 6 or more miles (10+ km)
Ceiling: at least 12,000 feet AGL
Clouds: sky clear below 12,000 feet AGL
Weather: no significant weather observed at this time

METAR text: UDYZ 162300Z 32003KT 9999 NSC 22/08 Q1010 R09/010070 NOSIG
Conditions at: UDYZ (ZVARTNOTS , AM) observed 2300 UTC 16 June 2019
Temperature: 22.0°C (72°F)
Dewpoint: 8.0°C (46°F) [RH = 41%]
Pressure (altimeter): 29.82 inches Hg (1010.0 mb)
Winds: from the NW (320 degrees) at 3 MPH (3 knots; 1.5 m/s)
Visibility: 6 or more miles (10+ km)
Ceiling: at least 12,000 feet AGL
Clouds: sky clear below 12,000 feet AGL
Weather: no significant weather observed at this time

METAR text: UDYZ 162230Z 28006KT 9999 NSC 23/08 Q1010 R09/010070 NOSIG
Conditions at: UDYZ (ZVARTNOTS , AM) observed 2230 UTC 16 June 2019
Temperature: 23.0°C (73°F)
Dewpoint: 8.0°C (46°F) [RH = 38%]
Pressure (altimeter): 29.82 inches Hg (1010.0 mb)
Winds: from the W (280 degrees) at 7 MPH (6 knots; 3.1 m/s)
Visibility: 6 or more miles (10+ km)
Ceiling: at least 12,000 feet AGL
Clouds: sky clear below 12,000 feet AGL
Weather: no significant weather observed at this time

METAR text: UDYZ 162200Z 05006KT 9999 NSC 24/10 Q1010 R09/010070 NOSIG
Conditions at: UDYZ (ZVARTNOTS , AM) observed 2200 UTC 16 June 2019
Temperature: 24.0°C (75°F)
Dewpoint: 10.0°C (50°F) [RH = 41%]
Pressure (altimeter): 29.82 inches Hg (1010.0 mb)
Winds: from the NE (50 degrees) at 7 MPH (6 knots; 3.1 m/s)
Visibility: 6 or more miles (10+ km)
Ceiling: at least 12,000 feet AGL
Clouds: sky clear below 12,000 feet AGL
Weather: no significant weather observed at this time

METAR text: UDYZ 162130Z 05006KT 9999 NSC 24/10 Q1010 R09/010070 NOSIG
Conditions at: UDYZ (ZVARTNOTS , AM) observed 2130 UTC 16 June 2019
Temperature: 24.0°C (75°F)
Dewpoint: 10.0°C (50°F) [RH = 41%]
Pressure (altimeter): 29.82 inches Hg (1010.0 mb)
Winds: from the NE (50 degrees) at 7 MPH (6 knots; 3.1 m/s)
Visibility: 6 or more miles (10+ km)
Ceiling: at least 12,000 feet AGL
Clouds: sky clear below 12,000 feet AGL
Weather: no significant weather observed at this time

METAR text: UDYZ 162100Z 05005KT 9999 NSC 24/10 Q1010 R09/010070 NOSIG
Conditions at: UDYZ (ZVARTNOTS , AM) observed 2100 UTC 16 June 2019
Temperature: 24.0°C (75°F)
Dewpoint: 10.0°C (50°F) [RH = 41%]
Pressure (altimeter): 29.82 inches Hg (1010.0 mb)
Winds: from the NE (50 degrees) at 6 MPH (5 knots; 2.6 m/s)
Visibility: 6 or more miles (10+ km)
Ceiling: at least 12,000 feet AGL
Clouds: sky clear below 12,000 feet AGL
Weather: no significant weather observed at this time

METAR text: UDYZ 162030Z 04006KT 9999 FEW040CB 25/09 Q1010 R09/010070 NOSIG
Conditions at: UDYZ (ZVARTNOTS , AM) observed 2030 UTC 16 June 2019
Temperature: 25.0°C (77°F)
Dewpoint: 9.0°C (48°F) [RH = 36%]
Pressure (altimeter): 29.82 inches Hg (1010.0 mb)
Winds: from the NE (40 degrees) at 7 MPH (6 knots; 3.1 m/s)
Visibility: 6 or more miles (10+ km)
Ceiling: at least 12,000 feet AGL
Clouds: few clouds at 4000 feet AGL
Weather: no significant weather observed at this time

METAR text: UDYZ 162000Z 04005KT 9999 FEW040CB 25/08 Q1010 R09/010070 NOSIG
Conditions at: UDYZ (ZVARTNOTS , AM) observed 2000 UTC 16 June 2019
Temperature: 25.0°C (77°F)
Dewpoint: 8.0°C (46°F) [RH = 34%]
Pressure (altimeter): 29.82 inches Hg (1010.0 mb)
Winds: from the NE (40 degrees) at 6 MPH (5 knots; 2.6 m/s)
Visibility: 6 or more miles (10+ km)
Ceiling: at least 12,000 feet AGL
Clouds: few clouds at 4000 feet AGL
Weather: no significant weather observed at this time

METAR text: UDYZ 161930Z 05005KT 9999 FEW040CB 24/07 Q1010 R09/010070 NOSIG
Conditions at: UDYZ (ZVARTNOTS , AM) observed 1930 UTC 16 June 2019
Temperature: 24.0°C (75°F)
Dewpoint: 7.0°C (45°F) [RH = 34%]
Pressure (altimeter): 29.82 inches Hg (1010.0 mb)
Winds: from the NE (50 degrees) at 6 MPH (5 knots; 2.6 m/s)
Visibility: 6 or more miles (10+ km)
Ceiling: at least 12,000 feet AGL
Clouds: few clouds at 4000 feet AGL
Weather: no significant weather observed at this time

METAR text: UDYZ 161900Z 06003KT 9999 VCTS FEW040CB 24/05 Q1010 R09/010070 TEMPO TS
Conditions at: UDYZ (ZVARTNOTS , AM) observed 1900 UTC 16 June 2019
Temperature: 24.0°C (75°F)
Dewpoint: 5.0°C (41°F) [RH = 29%]
Pressure (altimeter): 29.82 inches Hg (1010.0 mb)
Winds: from the ENE (60 degrees) at 3 MPH (3 knots; 1.5 m/s)
Visibility: 6 or more miles (10+ km)
Ceiling: at least 12,000 feet AGL
Clouds: few clouds at 4000 feet AGL
Weather: VCTS  (thunderstorm in vicinity)

METAR text: UDYZ 161830Z 01003KT 9999 VCTS FEW040CB 24/06 Q1010 R09/010070 TEMPO TS
Conditions at: UDYZ (ZVARTNOTS , AM) observed 1830 UTC 16 June 2019
Temperature: 24.0°C (75°F)
Dewpoint: 6.0°C (43°F) [RH = 31%]
Pressure (altimeter): 29.82 inches Hg (1010.0 mb)
Winds: from the N (10 degrees) at 3 MPH (3 knots; 1.5 m/s)
Visibility: 6 or more miles (10+ km)
Ceiling: at least 12,000 feet AGL
Clouds: few clouds at 4000 feet AGL
Weather: VCTS  (thunderstorm in vicinity)

METAR text: UDYZ 161800Z 24004KT 9999 VCTS FEW040CB 24/06 Q1010 R09/010070 TEMPO TS
Conditions at: UDYZ (ZVARTNOTS , AM) observed 1800 UTC 16 June 2019
Temperature: 24.0°C (75°F)
Dewpoint: 6.0°C (43°F) [RH = 31%]
Pressure (altimeter): 29.82 inches Hg (1010.0 mb)
Winds: from the WSW (240 degrees) at 5 MPH (4 knots; 2.1 m/s)
Visibility: 6 or more miles (10+ km)
Ceiling: at least 12,000 feet AGL
Clouds: few clouds at 4000 feet AGL
Weather: VCTS  (thunderstorm in vicinity)

METAR text: UDYZ 161730Z 05003KT 9999 VCTS FEW040CB 25/06 Q1009 R09/010070 TEMPO TS
Conditions at: UDYZ (ZVARTNOTS , AM) observed 1730 UTC 16 June 2019
Temperature: 25.0°C (77°F)
Dewpoint: 6.0°C (43°F) [RH = 30%]
Pressure (altimeter): 29.79 inches Hg (1009.0 mb)
Winds: from the NE (50 degrees) at 3 MPH (3 knots; 1.5 m/s)
Visibility: 6 or more miles (10+ km)
Ceiling: at least 12,000 feet AGL
Clouds: few clouds at 4000 feet AGL
Weather: VCTS  (thunderstorm in vicinity)

METAR text: UDYZ 161700Z 10003KT 9999 FEW046 27/05 Q1009 R09/010070 NOSIG
Conditions at: UDYZ (ZVARTNOTS , AM) observed 1700 UTC 16 June 2019
Temperature: 27.0°C (81°F)
Dewpoint: 5.0°C (41°F) [RH = 24%]
Pressure (altimeter): 29.79 inches Hg (1009.0 mb)
Winds: from the E (100 degrees) at 3 MPH (3 knots; 1.5 m/s)
Visibility: 6 or more miles (10+ km)
Ceiling: at least 12,000 feet AGL
Clouds: few clouds at 4600 feet AGL
Weather: no significant weather observed at this time

METAR text: UDYZ 161630Z 13007KT 9999 FEW046 27/07 Q1009 R09/010070 NOSIG
Conditions at: UDYZ (ZVARTNOTS , AM) observed 1630 UTC 16 June 2019
Temperature: 27.0°C (81°F)
Dewpoint: 7.0°C (45°F) [RH = 28%]
Pressure (altimeter): 29.79 inches Hg (1009.0 mb)
Winds: from the SE (130 degrees) at 8 MPH (7 knots; 3.6 m/s)
Visibility: 6 or more miles (10+ km)
Ceiling: at least 12,000 feet AGL
Clouds: few clouds at 4600 feet AGL
Weather: no significant weather observed at this time

METAR text: UDYZ 161600Z 13007KT 9999 FEW046 28/07 Q1009 R09/010070 NOSIG
Conditions at: UDYZ (ZVARTNOTS , AM) observed 1600 UTC 16 June 2019
Temperature: 28.0°C (82°F)
Dewpoint: 7.0°C (45°F) [RH = 27%]
Pressure (altimeter): 29.79 inches Hg (1009.0 mb)
Winds: from the SE (130 degrees) at 8 MPH (7 knots; 3.6 m/s)
Visibility: 6 or more miles (10+ km)
Ceiling: at least 12,000 feet AGL
Clouds: few clouds at 4600 feet AGL
Weather: no significant weather observed at this time

METAR text: UDYZ 161530Z 13008KT 9999 FEW046 30/07 Q1008 R09/010070 NOSIG
Conditions at: UDYZ (ZVARTNOTS , AM) observed 1530 UTC 16 June 2019
Temperature: 30.0°C (86°F)
Dewpoint: 7.0°C (45°F) [RH = 24%]
Pressure (altimeter): 29.76 inches Hg (1008.0 mb)
Winds: from the SE (130 degrees) at 9 MPH (8 knots; 4.1 m/s)
Visibility: 6 or more miles (10+ km)
Ceiling: at least 12,000 feet AGL
Clouds: few clouds at 4600 feet AGL
Weather: no significant weather observed at this time

METAR text: UDYZ 161500Z 14009KT 9999 FEW046 31/05 Q1008 R09/010070 NOSIG
Conditions at: UDYZ (ZVARTNOTS , AM) observed 1500 UTC 16 June 2019
Temperature: 31.0°C (88°F)
Dewpoint: 5.0°C (41°F) [RH = 19%]
Pressure (altimeter): 29.76 inches Hg (1008.0 mb)
Winds: from the SE (140 degrees) at 10 MPH (9 knots; 4.6 m/s)
Visibility: 6 or more miles (10+ km)
Ceiling: at least 12,000 feet AGL
Clouds: few clouds at 4600 feet AGL
Weather: no significant weather observed at this time

METAR text: UDYZ 161430Z 19005KT 9999 FEW046 34/02 Q1008 R09/010070 NOSIG
Conditions at: UDYZ (ZVARTNOTS , AM) observed 1430 UTC 16 June 2019
Temperature: 34.0°C (93°F)
Dewpoint: 2.0°C (36°F) [RH = 13%]
Pressure (altimeter): 29.76 inches Hg (1008.0 mb)
Winds: from the S (190 degrees) at 6 MPH (5 knots; 2.6 m/s)
Visibility: 6 or more miles (10+ km)
Ceiling: at least 12,000 feet AGL
Clouds: few clouds at 4600 feet AGL
Weather: no significant weather observed at this time

METAR text: UDYZ 161400Z 16003KT 130V210 9999 FEW040CB 34/03 Q1008 R09/010070 NOSIG
Conditions at: UDYZ (ZVARTNOTS , AM) observed 1400 UTC 16 June 2019
Temperature: 34.0°C (93°F)
Dewpoint: 3.0°C (37°F) [RH = 14%]
Pressure (altimeter): 29.76 inches Hg (1008.0 mb)
Winds: from the SSE (160 degrees) at 3 MPH (3 knots; 1.5 m/s)
Visibility: 6 or more miles (10+ km)
Ceiling: at least 12,000 feet AGL
Clouds: few clouds at 4000 feet AGL
Weather: no significant weather observed at this time

METAR text: UDYZ 161330Z 20005KT 9999 FEW040CB 34/03 Q1008 R09/010070 NOSIG
Conditions at: UDYZ (ZVARTNOTS , AM) observed 1330 UTC 16 June 2019
Temperature: 34.0°C (93°F)
Dewpoint: 3.0°C (37°F) [RH = 14%]
Pressure (altimeter): 29.76 inches Hg (1008.0 mb)
Winds: from the SSW (200 degrees) at 6 MPH (5 knots; 2.6 m/s)
Visibility: 6 or more miles (10+ km)
Ceiling: at least 12,000 feet AGL
Clouds: few clouds at 4000 feet AGL
Weather: no significant weather observed at this time

METAR text: UDYZ 161300Z 19005KT 160V230 9999 FEW040CB 34/03 Q1008 R09/010070 NOSIG
Conditions at: UDYZ (ZVARTNOTS , AM) observed 1300 UTC 16 June 2019
Temperature: 34.0°C (93°F)
Dewpoint: 3.0°C (37°F) [RH = 14%]
Pressure (altimeter): 29.76 inches Hg (1008.0 mb)
Winds: from the S (190 degrees) at 6 MPH (5 knots; 2.6 m/s)
Visibility: 6 or more miles (10+ km)
Ceiling: at least 12,000 feet AGL
Clouds: few clouds at 4000 feet AGL
Weather: no significant weather observed at this time

METAR text: UDYZ 161230Z 17004KT 120V240 9999 FEW040CB 34/04 Q1009 R09/010070 NOSIG
Conditions at: UDYZ (ZVARTNOTS , AM) observed 1230 UTC 16 June 2019
Temperature: 34.0°C (93°F)
Dewpoint: 4.0°C (39°F) [RH = 15%]
Pressure (altimeter): 29.79 inches Hg (1009.0 mb)
Winds: from the S (170 degrees) at 5 MPH (4 knots; 2.1 m/s)
Visibility: 6 or more miles (10+ km)
Ceiling: at least 12,000 feet AGL
Clouds: few clouds at 4000 feet AGL
Weather: no significant weather observed at this time

METAR text: UDYZ 161200Z 19005KT 110V240 9999 FEW040CB 34/04 Q1009 R09/010070 NOSIG
Conditions at: UDYZ (ZVARTNOTS , AM) observed 1200 UTC 16 June 2019
Temperature: 34.0°C (93°F)
Dewpoint: 4.0°C (39°F) [RH = 15%]
Pressure (altimeter): 29.79 inches Hg (1009.0 mb)
Winds: from the S (190 degrees) at 6 MPH (5 knots; 2.6 m/s)
Visibility: 6 or more miles (10+ km)
Ceiling: at least 12,000 feet AGL
Clouds: few clouds at 4000 feet AGL
Weather: no significant weather observed at this time

METAR text: UDYZ 161130Z VRB03KT 9999 FEW040CB 33/03 Q1009 R09/010070 NOSIG
Conditions at: UDYZ (ZVARTNOTS , AM) observed 1130 UTC 16 June 2019
Temperature: 33.0°C (91°F)
Dewpoint: 3.0°C (37°F) [RH = 15%]
Pressure (altimeter): 29.79 inches Hg (1009.0 mb)
Winds: variable direction winds at 3 MPH (3 knots; 1.5 m/s)
Visibility: 6 or more miles (10+ km)
Ceiling: at least 12,000 feet AGL
Clouds: few clouds at 4000 feet AGL
Weather: no significant weather observed at this time

METAR text: UDYZ 161100Z VRB01KT 9999 FEW040TCU 33/04 Q1010 R09/010070 NOSIG
Conditions at: UDYZ (ZVARTNOTS , AM) observed 1100 UTC 16 June 2019
Temperature: 33.0°C (91°F)
Dewpoint: 4.0°C (39°F) [RH = 16%]
Pressure (altimeter): 29.82 inches Hg (1010.0 mb)
Winds: variable direction winds at 1 MPH (1 knots; 0.5 m/s)
Visibility: 6 or more miles (10+ km)
Ceiling: at least 12,000 feet AGL
Clouds: few clouds at 4000 feet AGL
Weather: no significant weather observed at this time

METAR text: UDYZ 161030Z 16003KT 120V200 9999 FEW040TCU 33/05 Q1010 R09/010070 NOSIG
Conditions at: UDYZ (ZVARTNOTS , AM) observed 1030 UTC 16 June 2019
Temperature: 33.0°C (91°F)
Dewpoint: 5.0°C (41°F) [RH = 17%]
Pressure (altimeter): 29.82 inches Hg (1010.0 mb)
Winds: from the SSE (160 degrees) at 3 MPH (3 knots; 1.5 m/s)
Visibility: 6 or more miles (10+ km)
Ceiling: at least 12,000 feet AGL
Clouds: few clouds at 4000 feet AGL
Weather: no significant weather observed at this time

METAR text: UDYZ 161000Z 15004KT 9999 FEW040TCU 32/05 Q1010 R09/010070 NOSIG
Conditions at: UDYZ (ZVARTNOTS , AM) observed 1000 UTC 16 June 2019
Temperature: 32.0°C (90°F)
Dewpoint: 5.0°C (41°F) [RH = 18%]
Pressure (altimeter): 29.82 inches Hg (1010.0 mb)
Winds: from the SSE (150 degrees) at 5 MPH (4 knots; 2.1 m/s)
Visibility: 6 or more miles (10+ km)
Ceiling: at least 12,000 feet AGL
Clouds: few clouds at 4000 feet AGL
Weather: no significant weather observed at this time

METAR text: UDYZ 160930Z 25002KT 9999 FEW040TCU 31/05 Q1011 R09/010070 NOSIG
Conditions at: UDYZ (ZVARTNOTS , AM) observed 0930 UTC 16 June 2019
Temperature: 31.0°C (88°F)
Dewpoint: 5.0°C (41°F) [RH = 19%]
Pressure (altimeter): 29.85 inches Hg (1011.0 mb)
Winds: from the WSW (250 degrees) at 2 MPH (2 knots; 1.0 m/s)
Visibility: 6 or more miles (10+ km)
Ceiling: at least 12,000 feet AGL
Clouds: few clouds at 4000 feet AGL
Weather: no significant weather observed at this time

METAR text: UDYZ 160900Z 13004KT 080V180 9999 NSC 31/05 Q1011 R09/010070 NOSIG
Conditions at: UDYZ (ZVARTNOTS , AM) observed 0900 UTC 16 June 2019
Temperature: 31.0°C (88°F)
Dewpoint: 5.0°C (41°F) [RH = 19%]
Pressure (altimeter): 29.85 inches Hg (1011.0 mb)
Winds: from the SE (130 degrees) at 5 MPH (4 knots; 2.1 m/s)
Visibility: 6 or more miles (10+ km)
Ceiling: at least 12,000 feet AGL
Clouds: sky clear below 12,000 feet AGL
Weather: no significant weather observed at this time

METAR text: UDYZ 160830Z 18005KT 150V220 9999 NSC 31/05 Q1012 R09/010070 NOSIG
Conditions at: UDYZ (ZVARTNOTS , AM) observed 0830 UTC 16 June 2019
Temperature: 31.0°C (88°F)
Dewpoint: 5.0°C (41°F) [RH = 19%]
Pressure (altimeter): 29.88 inches Hg (1012.0 mb)
Winds: from the S (180 degrees) at 6 MPH (5 knots; 2.6 m/s)
Visibility: 6 or more miles (10+ km)
Ceiling: at least 12,000 feet AGL
Clouds: sky clear below 12,000 feet AGL
Weather: no significant weather observed at this time

METAR text: UDYZ 160800Z 15004KT 120V210 9999 NSC 30/04 Q1012 R09/010070 NOSIG
Conditions at: UDYZ (ZVARTNOTS , AM) observed 0800 UTC 16 June 2019
Temperature: 30.0°C (86°F)
Dewpoint: 4.0°C (39°F) [RH = 19%]
Pressure (altimeter): 29.88 inches Hg (1012.0 mb)
Winds: from the SSE (150 degrees) at 5 MPH (4 knots; 2.1 m/s)
Visibility: 6 or more miles (10+ km)
Ceiling: at least 12,000 feet AGL
Clouds: sky clear below 12,000 feet AGL
Weather: no significant weather observed at this time

METAR text: UDYZ 160730Z 15004KT 090V220 9999 NSC 30/06 Q1012 R09/010070 NOSIG
Conditions at: UDYZ (ZVARTNOTS , AM) observed 0730 UTC 16 June 2019
Temperature: 30.0°C (86°F)
Dewpoint: 6.0°C (43°F) [RH = 22%]
Pressure (altimeter): 29.88 inches Hg (1012.0 mb)
Winds: from the SSE (150 degrees) at 5 MPH (4 knots; 2.1 m/s)
Visibility: 6 or more miles (10+ km)
Ceiling: at least 12,000 feet AGL
Clouds: sky clear below 12,000 feet AGL
Weather: no significant weather observed at this time

METAR text: UDYZ 160700Z 13003KT 040V190 9999 NSC 28/06 Q1013 R09/010070 NOSIG
Conditions at: UDYZ (ZVARTNOTS , AM) observed 0700 UTC 16 June 2019
Temperature: 28.0°C (82°F)
Dewpoint: 6.0°C (43°F) [RH = 25%]
Pressure (altimeter): 29.91 inches Hg (1013.0 mb)
Winds: from the SE (130 degrees) at 3 MPH (3 knots; 1.5 m/s)
Visibility: 6 or more miles (10+ km)
Ceiling: at least 12,000 feet AGL
Clouds: sky clear below 12,000 feet AGL
Weather: no significant weather observed at this time

METAR text: UDYZ 160630Z 13004KT 080V160 9999 NSC 27/07 Q1013 R09/010070 NOSIG
Conditions at: UDYZ (ZVARTNOTS , AM) observed 0630 UTC 16 June 2019
Temperature: 27.0°C (81°F)
Dewpoint: 7.0°C (45°F) [RH = 28%]
Pressure (altimeter): 29.91 inches Hg (1013.0 mb)
Winds: from the SE (130 degrees) at 5 MPH (4 knots; 2.1 m/s)
Visibility: 6 or more miles (10+ km)
Ceiling: at least 12,000 feet AGL
Clouds: sky clear below 12,000 feet AGL
Weather: no significant weather observed at this time

METAR text: UDYZ 160600Z 13005KT 9999 NSC 26/07 Q1013 R09/010070 NOSIG
Conditions at: UDYZ (ZVARTNOTS , AM) observed 0600 UTC 16 June 2019
Temperature: 26.0°C (79°F)
Dewpoint: 7.0°C (45°F) [RH = 30%]
Pressure (altimeter): 29.91 inches Hg (1013.0 mb)
Winds: from the SE (130 degrees) at 6 MPH (5 knots; 2.6 m/s)
Visibility: 6 or more miles (10+ km)
Ceiling: at least 12,000 feet AGL
Clouds: sky clear below 12,000 feet AGL
Weather: no significant weather observed at this time

METAR text: UDYZ 160530Z 14003KT 9999 NSC 26/06 Q1013 R09/010070 NOSIG
Conditions at: UDYZ (ZVARTNOTS , AM) observed 0530 UTC 16 June 2019
Temperature: 26.0°C (79°F)
Dewpoint: 6.0°C (43°F) [RH = 28%]
Pressure (altimeter): 29.91 inches Hg (1013.0 mb)
Winds: from the SE (140 degrees) at 3 MPH (3 knots; 1.5 m/s)
Visibility: 6 or more miles (10+ km)
Ceiling: at least 12,000 feet AGL
Clouds: sky clear below 12,000 feet AGL
Weather: no significant weather observed at this time

METAR text: UDYZ 160500Z VRB02KT 9999 NSC 26/05 Q1013 R09/010070 NOSIG
Conditions at: UDYZ (ZVARTNOTS , AM) observed 0500 UTC 16 June 2019
Temperature: 26.0°C (79°F)
Dewpoint: 5.0°C (41°F) [RH = 26%]
Pressure (altimeter): 29.91 inches Hg (1013.0 mb)
Winds: variable direction winds at 2 MPH (2 knots; 1.0 m/s)
Visibility: 6 or more miles (10+ km)
Ceiling: at least 12,000 feet AGL
Clouds: sky clear below 12,000 feet AGL
Weather: no significant weather observed at this time

METAR text: UDYZ 160430Z VRB01KT 9999 NSC 25/06 Q1013 R09/010070 NOSIG
Conditions at: UDYZ (ZVARTNOTS , AM) observed 0430 UTC 16 June 2019
Temperature: 25.0°C (77°F)
Dewpoint: 6.0°C (43°F) [RH = 30%]
Pressure (altimeter): 29.91 inches Hg (1013.0 mb)
Winds: variable direction winds at 1 MPH (1 knots; 0.5 m/s)
Visibility: 6 or more miles (10+ km)
Ceiling: at least 12,000 feet AGL
Clouds: sky clear below 12,000 feet AGL
Weather: no significant weather observed at this time

METAR text: UDYZ 160400Z 26003KT 9999 22/07 Q1013 R09/010070 NOSIG
Conditions at: UDYZ (ZVARTNOTS , AM) observed 0400 UTC 16 June 2019
Temperature: 22.0°C (72°F)
Dewpoint: 7.0°C (45°F) [RH = 38%]
Pressure (altimeter): 29.91 inches Hg (1013.0 mb)
Winds: from the W (260 degrees) at 3 MPH (3 knots; 1.5 m/s)
Visibility: 6 or more miles (10+ km)
Ceiling: unknown
Clouds: missing
Weather: no significant weather observed at this time

METAR text: UDYZ 160330Z 27003KT 9999 21/08 Q1013 R09/010070 NOSIG
Conditions at: UDYZ (ZVARTNOTS , AM) observed 0330 UTC 16 June 2019
Temperature: 21.0°C (70°F)
Dewpoint: 8.0°C (46°F) [RH = 43%]
Pressure (altimeter): 29.91 inches Hg (1013.0 mb)
Winds: from the W (270 degrees) at 3 MPH (3 knots; 1.5 m/s)
Visibility: 6 or more miles (10+ km)
Ceiling: unknown
Clouds: missing
Weather: no significant weather observed at this time

METAR text: UDYZ 160300Z 20002KT 9999 20/07 Q1013 R09/010070 NOSIG
Conditions at: UDYZ (ZVARTNOTS , AM) observed 0300 UTC 16 June 2019
Temperature: 20.0°C (68°F)
Dewpoint: 7.0°C (45°F) [RH = 43%]
Pressure (altimeter): 29.91 inches Hg (1013.0 mb)
Winds: from the SSW (200 degrees) at 2 MPH (2 knots; 1.0 m/s)
Visibility: 6 or more miles (10+ km)
Ceiling: unknown
Clouds: missing
Weather: no significant weather observed at this time

METAR text: UDYZ 160230Z 05004KT 9999 20/06 Q1013 R09/010070 NOSIG
Conditions at: UDYZ (ZVARTNOTS , AM) observed 0230 UTC 16 June 2019
Temperature: 20.0°C (68°F)
Dewpoint: 6.0°C (43°F) [RH = 40%]
Pressure (altimeter): 29.91 inches Hg (1013.0 mb)
Winds: from the NE (50 degrees) at 5 MPH (4 knots; 2.1 m/s)
Visibility: 6 or more miles (10+ km)
Ceiling: unknown
Clouds: missing
Weather: no significant weather observed at this time

METAR text: UDYZ 160200Z 09001KT 9999 19/06 Q1013 R09/010070 NOSIG
Conditions at: UDYZ (ZVARTNOTS , AM) observed 0200 UTC 16 June 2019
Temperature: 19.0°C (66°F)
Dewpoint: 6.0°C (43°F) [RH = 43%]
Pressure (altimeter): 29.91 inches Hg (1013.0 mb)
Winds: from the E (90 degrees) at 1 MPH (1 knots; 0.5 m/s)
Visibility: 6 or more miles (10+ km)
Ceiling: unknown
Clouds: missing
Weather: no significant weather observed at this time

METAR text: UDYZ 160130Z 06006KT 9999 FEW046 19/06 Q1013 R09/010070 NOSIG
Conditions at: UDYZ (ZVARTNOTS , AM) observed 0130 UTC 16 June 2019
Temperature: 19.0°C (66°F)
Dewpoint: 6.0°C (43°F) [RH = 43%]
Pressure (altimeter): 29.91 inches Hg (1013.0 mb)
Winds: from the ENE (60 degrees) at 7 MPH (6 knots; 3.1 m/s)
Visibility: 6 or more miles (10+ km)
Ceiling: at least 12,000 feet AGL
Clouds: few clouds at 4600 feet AGL
Weather: no significant weather observed at this time

METAR text: UDYZ 160100Z 07005KT 9999 FEW046 18/07 Q1013 R09/010070 NOSIG
Conditions at: UDYZ (ZVARTNOTS , AM) observed 0100 UTC 16 June 2019
Temperature: 18.0°C (64°F)
Dewpoint: 7.0°C (45°F) [RH = 49%]
Pressure (altimeter): 29.91 inches Hg (1013.0 mb)
Winds: from the ENE (70 degrees) at 6 MPH (5 knots; 2.6 m/s)
Visibility: 6 or more miles (10+ km)
Ceiling: at least 12,000 feet AGL
Clouds: few clouds at 4600 feet AGL
Weather: no significant weather observed at this time

METAR text: UDYZ 160030Z 34003KT 290V030 9999 FEW046 18/07 Q1013 R09/010070 NOSIG
Conditions at: UDYZ (ZVARTNOTS , AM) observed 0030 UTC 16 June 2019
Temperature: 18.0°C (64°F)
Dewpoint: 7.0°C (45°F) [RH = 49%]
Pressure (altimeter): 29.91 inches Hg (1013.0 mb)
Winds: from the NNW (340 degrees) at 3 MPH (3 knots; 1.5 m/s)
Visibility: 6 or more miles (10+ km)
Ceiling: at least 12,000 feet AGL
Clouds: few clouds at 4600 feet AGL
Weather: no significant weather observed at this time

METAR text: UDYZ 160000Z 34003KT 9999 FEW046 20/07 Q1013 R09/010070 NOSIG
Conditions at: UDYZ (ZVARTNOTS , AM) observed 0000 UTC 16 June 2019
Temperature: 20.0°C (68°F)
Dewpoint: 7.0°C (45°F) [RH = 43%]
Pressure (altimeter): 29.91 inches Hg (1013.0 mb)
Winds: from the NNW (340 degrees) at 3 MPH (3 knots; 1.5 m/s)
Visibility: 6 or more miles (10+ km)
Ceiling: at least 12,000 feet AGL
Clouds: few clouds at 4600 feet AGL
Weather: no significant weather observed at this time

METAR text: UDYZ 152330Z 00000KT 9999 FEW046 21/06 Q1013 R09/010070 NOSIG
Conditions at: UDYZ (ZVARTNOTS , AM) observed 2330 UTC 15 June 2019
Temperature: 21.0°C (70°F)
Dewpoint: 6.0°C (43°F) [RH = 38%]
Pressure (altimeter): 29.91 inches Hg (1013.0 mb)
Winds: calm
Visibility: 6 or more miles (10+ km)
Ceiling: at least 12,000 feet AGL
Clouds: few clouds at 4600 feet AGL
Weather: no significant weather observed at this time

METAR text: UDYZ 152300Z 03005KT 9999 FEW046 21/06 Q1013 R09/010070 NOSIG
Conditions at: UDYZ (ZVARTNOTS , AM) observed 2300 UTC 15 June 2019
Temperature: 21.0°C (70°F)
Dewpoint: 6.0°C (43°F) [RH = 38%]
Pressure (altimeter): 29.91 inches Hg (1013.0 mb)
Winds: from the NNE (30 degrees) at 6 MPH (5 knots; 2.6 m/s)
Visibility: 6 or more miles (10+ km)
Ceiling: at least 12,000 feet AGL
Clouds: few clouds at 4600 feet AGL
Weather: no significant weather observed at this time

Forecast for: UDYZ (ZVARTNOTS , AM)
Text: TAF UDYZ 170506Z 1706/1806 24006KT 9999 SCT040
Forecast period: 0600 UTC 17 June 2019 to 0600 UTC 18 June 2019
Forecast type: FROM: standard forecast or significant change
Winds: from the WSW (240 degrees) at 7 MPH (6 knots; 3.1 m/s)
Visibility: 6 or more miles 10+ km)
Ceiling: at least 12,000 feet AGL
Clouds: scattered clouds at 4000 feet AGL
Weather: no significant weather forecast for this period
Text: TEMPO 1706/1718 VRB16KT -TSRA BKN030CB
Forecast period: 0600 to 1800 UTC 17 June 2019
Forecast type: TEMPORARY: The following changes expected for less than half the time period
Winds: variable direction winds at 18 MPH (16 knots; 8.2 m/s)
Visibility: missing
Ceiling: 3000 feet AGL
Clouds: broken clouds at 3000 feet AGL
Weather: -TSRA  (light rain associated with thunderstorm(s))
Text: TEMPO 1718/1801 VRB16G26KT -TSRA SCT030CB
Forecast period: 1800 UTC 17 June 2019 to 0100 UTC 18 June 2019
Forecast type: TEMPORARY: The following changes expected for less than half the time period
Winds: variable direction winds at 18 MPH (16 knots; 8.2 m/s)
gusting to 30 MPH (26 knots; 13.4 m/s)
Visibility: missing
Ceiling: at least 12,000 feet AGL
Clouds: scattered clouds at 3000 feet AGL
Weather: -TSRA  (light rain associated with thunderstorm(s))